Time;durP1;ratioP1;P1;durP2;ratioP2;P2;SDS_P1;SDS_P2;PMS_P1;PMS_P2;Temp;Humidity;BMP_temperature;BMP_pressure;BME280_temperature;BME280_humidity;BME280_pressure;Samples;Min_cycle;Max_cycle;Signal;HPM_P1;HPM_P2
2024/01/11 00:00:52;;;;;;;89.30;50.50;;;;;;;-12.45;100.00;102098.63;109587;1242;71567;-78
2024/01/11 00:03:38;;;;;;;73.60;42.60;;;;;;;-12.50;100.00;102096.69;109606;1242;69263;-78
2024/01/11 00:06:07;;;;;;;68.20;41.00;;;;;;;-12.56;100.00;102095.48;109558;1240;70278;-78
2024/01/11 00:08:35;;;;;;;71.20;37.90;;;;;;;-12.64;100.00;102097.46;109588;1240;73398;-78
2024/01/11 00:11:05;;;;;;;61.40;34.40;;;;;;;-12.64;100.00;102097.10;109565;1242;63190;-77
2024/01/11 00:13:33;;;;;;;61.40;34.80;;;;;;;-12.65;100.00;102095.71;109580;1240;60539;-76
2024/01/11 00:16:02;;;;;;;54.80;29.00;;;;;;;-12.63;100.00;102097.98;109565;1240;71259;-75
2024/01/11 00:18:31;;;;;;;41.50;23.60;;;;;;;-12.67;100.00;102097.63;109577;1240;71996;-75
2024/01/11 00:21:00;;;;;;;43.30;26.90;;;;;;;-12.71;100.00;102100.48;109579;1240;67742;-76
2024/01/11 00:23:29;;;;;;;50.30;28.10;;;;;;;-12.76;100.00;102102.60;109567;1240;71928;-76
2024/01/11 00:25:59;;;;;;;47.20;26.80;;;;;;;-12.79;100.00;102101.95;109595;1242;59607;-76
2024/01/11 00:28:28;;;;;;;45.30;25.20;;;;;;;-12.84;100.00;102099.77;109622;1240;58762;-75
2024/01/11 00:30:57;;;;;;;47.80;26.70;;;;;;;-12.84;100.00;102100.73;109582;1244;72124;-76
2024/01/11 00:33:26;;;;;;;110.90;52.40;;;;;;;-12.90;100.00;102097.14;109613;1242;70913;-75
2024/01/11 00:35:55;;;;;;;123.20;61.90;;;;;;;-12.90;100.00;102096.46;109505;1240;71045;-76
2024/01/11 00:38:23;;;;;;;120.10;63.30;;;;;;;-13.00;100.00;102096.69;109690;1240;74510;-76
2024/01/11 00:40:52;;;;;;;121.00;60.70;;;;;;;-13.03;100.00;102094.49;109550;1244;60864;-80
2024/01/11 00:43:21;;;;;;;112.70;58.30;;;;;;;-13.01;100.00;102089.73;109348;1241;59555;-79
2024/01/11 00:45:50;;;;;;;60.90;32.60;;;;;;;-13.00;100.00;102089.11;109508;1241;73474;-80
2024/01/11 00:48:18;;;;;;;51.60;28.30;;;;;;;-13.02;100.00;102081.63;109542;1241;71999;-79
2024/01/11 00:50:47;;;;;;;50.10;27.80;;;;;;;-13.05;100.00;102076.16;109497;1240;70537;-79
2024/01/11 00:53:16;;;;;;;58.20;30.30;;;;;;;-13.09;100.00;102071.77;109414;1241;71701;-79
2024/01/11 00:55:45;;;;;;;69.10;36.20;;;;;;;-13.05;100.00;102069.41;109618;1244;62957;-79
2024/01/11 00:58:14;;;;;;;68.90;34.40;;;;;;;-13.03;100.00;102060.61;109674;1244;59995;-78
2024/01/11 01:00:43;;;;;;;65.90;33.00;;;;;;;-12.92;100.00;102058.27;109688;1241;71604;-76
2024/01/11 01:03:12;;;;;;;61.10;32.80;;;;;;;-12.87;100.00;102054.30;109680;1241;71509;-77
2024/01/11 01:05:41;;;;;;;58.70;29.70;;;;;;;-12.96;100.00;102051.55;109663;1242;70247;-76
2024/01/11 01:08:10;;;;;;;66.20;35.00;;;;;;;-12.93;100.00;102044.48;109662;1244;74103;-75
2024/01/11 01:10:39;;;;;;;63.30;32.80;;;;;;;-12.96;100.00;102040.35;109666;1241;63055;-75
2024/01/11 01:13:07;;;;;;;60.80;32.70;;;;;;;-13.00;100.00;102039.45;109519;1241;61265;-74
2024/01/11 01:15:36;;;;;;;63.30;32.20;;;;;;;-13.03;100.00;102036.33;109677;1242;72105;-73
2024/01/11 01:18:05;;;;;;;56.60;31.50;;;;;;;-13.02;100.00;102030.48;109641;1244;70283;-75
2024/01/11 01:20:34;;;;;;;66.60;31.30;;;;;;;-13.01;100.00;102027.17;109677;1244;68446;-75
2024/01/11 01:23:03;;;;;;;86.40;49.10;;;;;;;-13.02;100.00;102023.95;109623;1241;71805;-74
2024/01/11 01:25:32;;;;;;;64.30;35.50;;;;;;;-13.12;100.00;102020.69;109469;1245;61113;-76
2024/01/11 01:28:01;;;;;;;59.30;31.40;;;;;;;-13.12;100.00;102018.34;109685;1241;60238;-76
2024/01/11 01:30:29;;;;;;;60.30;34.70;;;;;;;-13.18;100.00;102008.48;109692;1241;73563;-76
2024/01/11 01:32:58;;;;;;;67.20;36.80;;;;;;;-13.16;100.00;102017.15;109431;1241;71991;-77
2024/01/11 01:35:27;;;;;;;60.60;32.80;;;;;;;-13.17;100.00;102011.88;109658;1241;70054;-76
2024/01/11 01:37:56;;;;;;;62.70;33.50;;;;;;;-13.19;100.00;102004.92;109671;1245;71645;-77
2024/01/11 01:40:25;;;;;;;58.90;30.80;;;;;;;-13.18;100.00;101996.58;109519;1241;60392;-77
2024/01/11 01:43:02;;;;;;;58.90;30.80;;;;;;;-13.16;100.00;101995.83;109468;1241;60540;-77
2024/01/11 01:45:30;;;;;;;49.60;27.10;;;;;;;-13.16;100.00;101993.00;109643;1241;73592;-77
2024/01/11 01:47:59;;;;;;;54.80;31.20;;;;;;;-13.18;100.00;101989.04;109453;1243;71134;-77
2024/01/11 01:50:29;;;;;;;54.50;31.40;;;;;;;-13.27;100.00;101981.46;109341;1241;70560;-76
2024/01/11 01:52:58;;;;;;;61.40;33.00;;;;;;;-13.27;100.00;101972.70;109473;1241;74628;-75
2024/01/11 01:55:28;;;;;;;58.70;30.60;;;;;;;-13.25;100.00;101969.66;109457;1241;62514;-75
2024/01/11 01:57:58;;;;;;;59.90;31.70;;;;;;;-13.25;100.00;101963.27;109349;1245;59883;-76
2024/01/11 02:00:27;;;;;;;56.00;29.30;;;;;;;-13.29;100.00;101959.09;109322;1241;70787;-75
2024/01/11 02:02:58;;;;;;;60.00;32.40;;;;;;;-13.29;100.00;101957.70;109388;1241;71231;-75
2024/01/11 02:05:27;;;;;;;65.20;32.80;;;;;;;-13.41;100.00;101950.51;109585;1245;68478;-76
2024/01/11 02:07:59;;;;;;;65.70;33.10;;;;;;;-13.37;100.00;101945.15;109596;1244;70352;-75
2024/01/11 02:10:30;;;;;;;58.60;32.50;;;;;;;-13.36;100.00;101941.48;109505;1245;60299;-74
2024/01/11 02:12:59;;;;;;;70.90;37.80;;;;;;;-13.38;100.00;101940.41;109486;1242;58650;-73
2024/01/11 02:15:28;;;;;;;61.00;34.10;;;;;;;-13.34;100.00;101941.25;109621;1245;71871;-75
2024/01/11 02:17:57;;;;;;;58.20;31.20;;;;;;;-13.40;100.00;101936.63;109484;1241;72070;-75
2024/01/11 02:20:26;;;;;;;55.00;31.20;;;;;;;-13.42;100.00;101933.16;109502;1241;70658;-75
2024/01/11 02:23:02;;;;;;;54.70;29.20;;;;;;;-13.54;100.00;101928.45;109486;1241;72658;-76
2024/01/11 02:25:31;;;;;;;52.80;29.00;;;;;;;-13.54;100.00;101928.98;109332;1243;63158;-73
2024/01/11 02:27:59;;;;;;;62.50;30.60;;;;;;;-13.56;100.00;101927.51;109488;1246;60823;-75
2024/01/11 02:30:28;;;;;;;59.40;32.20;;;;;;;-13.57;100.00;101922.11;109297;1245;71466;-74
2024/01/11 02:32:57;;;;;;;72.30;38.90;;;;;;;-13.59;100.00;101921.02;109327;1245;70680;-74
2024/01/11 02:35:27;;;;;;;69.00;35.70;;;;;;;-13.57;100.00;101919.29;109388;1241;69689;-76
2024/01/11 02:37:57;;;;;;;68.60;35.70;;;;;;;-13.58;100.00;101916.38;109598;1245;70777;-75
2024/01/11 02:40:26;;;;;;;81.90;39.70;;;;;;;-13.52;100.00;101910.78;109914;1244;62863;-76
2024/01/11 02:42:55;;;;;;;80.60;43.00;;;;;;;-13.50;100.00;101905.69;109531;1241;61465;-74
2024/01/11 02:45:23;;;;;;;76.60;38.90;;;;;;;-13.51;100.00;101903.10;109614;1244;73746;-74
2024/01/11 02:47:52;;;;;;;64.10;34.60;;;;;;;-13.54;100.00;101901.81;109639;1244;70648;-74
2024/01/11 02:50:21;;;;;;;67.10;36.30;;;;;;;-13.54;100.00;101898.98;109630;1244;68515;-74
2024/01/11 02:52:50;;;;;;;92.30;47.10;;;;;;;-13.52;100.00;101893.70;109611;1241;71029;-76
2024/01/11 02:55:19;;;;;;;98.10;49.40;;;;;;;-13.46;100.00;101887.59;109594;1243;61976;-76
2024/01/11 02:57:47;;;;;;;92.00;45.70;;;;;;;-13.50;100.00;101884.25;109648;1244;60660;-76
2024/01/11 03:00:16;;;;;;;79.50;42.80;;;;;;;-13.50;100.00;101878.36;109541;1245;71321;-76
2024/01/11 03:02:45;;;;;;;82.70;42.30;;;;;;;-13.50;100.00;101878.20;109489;1241;72207;-74
2024/01/11 03:05:14;;;;;;;80.30;43.60;;;;;;;-13.52;100.00;101871.77;109407;1241;69722;-74
2024/01/11 03:07:42;;;;;;;83.90;43.80;;;;;;;-13.52;100.00;101870.41;109258;1241;72977;-76
2024/01/11 03:10:11;;;;;;;84.30;42.70;;;;;;;-13.52;100.00;101870.41;109249;1245;61032;-81
2024/01/11 03:12:40;;;;;;;88.40;45.30;;;;;;;-13.50;100.00;101868.80;109422;1243;58640;-75
2024/01/11 03:15:09;;;;;;;90.50;43.00;;;;;;;-13.50;100.00;101865.29;109241;1246;70908;-75
2024/01/11 03:17:38;;;;;;;95.00;46.70;;;;;;;-13.55;100.00;101864.92;109447;1241;72116;-75
2024/01/11 03:20:08;;;;;;;92.50;44.20;;;;;;;-13.63;100.00;101865.55;109430;1242;70844;-82
2024/01/11 03:22:36;;;;;;;85.00;44.20;;;;;;;-13.66;100.00;101863.44;109247;1241;73597;-75
2024/01/11 03:25:06;;;;;;;81.10;44.50;;;;;;;-13.62;100.00;101861.42;109428;1244;60859;-78
2024/01/11 03:27:34;;;;;;;87.70;45.60;;;;;;;-13.68;100.00;101852.96;109468;1245;60940;-74
2024/01/11 03:30:04;;;;;;;89.40;47.50;;;;;;;-13.65;100.00;101852.06;109466;1244;70729;-74
2024/01/11 03:32:33;;;;;;;85.40;43.50;;;;;;;-13.71;100.00;101853.98;109479;1242;70200;-74
2024/01/11 03:35:02;;;;;;;88.30;46.50;;;;;;;-13.70;100.00;101852.34;109347;1241;67862;-73
2024/01/11 03:37:31;;;;;;;87.60;45.40;;;;;;;-13.72;100.00;101850.44;109467;1245;71716;-73
2024/01/11 03:40:02;;;;;;;98.80;47.80;;;;;;;-13.71;100.00;101846.14;109489;1244;62981;-74
2024/01/11 03:42:31;;;;;;;96.80;46.60;;;;;;;-13.71;100.00;101842.28;109645;1241;59229;-73
2024/01/11 03:45:00;;;;;;;95.70;46.30;;;;;;;-13.70;100.00;101838.60;109692;1241;71625;-73
2024/01/11 03:47:29;;;;;;;85.60;44.00;;;;;;;-13.75;100.00;101836.55;109664;1241;69540;-73
2024/01/11 03:49:58;;;;;;;81.30;42.30;;;;;;;-13.79;100.00;101835.17;109641;1241;69388;-72
2024/01/11 03:52:27;;;;;;;82.70;43.70;;;;;;;-13.81;100.00;101833.59;109680;1240;73036;-73
2024/01/11 03:54:55;;;;;;;94.50;45.80;;;;;;;-13.86;100.00;101825.19;109640;1241;63847;-73
2024/01/11 03:57:24;;;;;;;88.70;42.30;;;;;;;-13.89;100.00;101823.37;109655;1241;59223;-73
2024/01/11 03:59:53;;;;;;;89.70;44.20;;;;;;;-13.86;100.00;101815.29;109719;1241;70879;-74
2024/01/11 04:02:22;;;;;;;95.90;46.10;;;;;;;-13.87;100.00;101808.56;109668;1241;72139;-74
2024/01/11 04:04:50;;;;;;;90.60;47.20;;;;;;;-13.93;100.00;101805.47;109655;1241;70630;-73
2024/01/11 04:07:19;;;;;;;98.00;48.20;;;;;;;-13.91;100.00;101803.18;109657;1240;72438;-74
2024/01/11 04:09:48;;;;;;;100.60;48.80;;;;;;;-14.02;100.00;101798.36;109768;1242;60331;-74
2024/01/11 04:12:17;;;;;;;99.30;50.40;;;;;;;-14.04;100.00;101796.92;109619;1240;60998;-74
2024/01/11 04:14:45;;;;;;;87.30;45.60;;;;;;;-14.07;100.00;101794.10;109629;1241;73362;-74
2024/01/11 04:17:14;;;;;;;85.50;43.70;;;;;;;-14.06;100.00;101790.27;109775;1240;70810;-74
2024/01/11 04:19:43;;;;;;;84.90;44.90;;;;;;;-14.07;100.00;101785.23;109628;1240;67752;-74
2024/01/11 04:22:12;;;;;;;86.80;43.80;;;;;;;-14.05;100.00;101785.67;109752;1242;74746;-74
2024/01/11 04:24:43;;;;;;;84.10;43.10;;;;;;;-14.05;100.00;101783.31;109795;1242;63260;-74
2024/01/11 04:27:11;;;;;;;87.20;46.00;;;;;;;-14.04;100.00;101775.65;109813;1241;61055;-74
2024/01/11 04:29:40;;;;;;;84.10;42.10;;;;;;;-14.03;100.00;101775.18;109619;1241;73009;-73
2024/01/11 04:32:09;;;;;;;91.80;47.70;;;;;;;-14.02;100.00;101768.54;109732;1240;70168;-75
2024/01/11 04:34:38;;;;;;;97.40;45.90;;;;;;;-14.03;100.00;101773.52;109729;1241;70221;-73
2024/01/11 04:37:07;;;;;;;87.50;42.20;;;;;;;-14.01;100.00;101773.95;109707;1241;73690;-73
2024/01/11 04:39:36;;;;;;;89.40;46.10;;;;;;;-13.93;100.00;101772.95;109577;1240;62671;-73
2024/01/11 04:42:05;;;;;;;85.00;41.60;;;;;;;-13.94;100.00;101762.70;109733;1241;61522;-73
2024/01/11 04:44:33;;;;;;;102.80;51.50;;;;;;;-13.99;100.00;101772.37;109803;1241;74001;-72
2024/01/11 04:47:02;;;;;;;97.70;51.00;;;;;;;-14.03;100.00;101774.34;109790;1240;71562;-73
2024/01/11 04:49:31;;;;;;;86.70;47.70;;;;;;;-14.07;100.00;101772.48;109820;1241;70256;-73
2024/01/11 04:52:00;;;;;;;104.20;48.40;;;;;;;-14.07;100.00;101770.34;109896;1242;71408;-73
2024/01/11 04:54:29;;;;;;;109.90;55.80;;;;;;;-14.06;100.00;101764.35;109819;1240;61103;-73
2024/01/11 04:56:58;;;;;;;97.40;47.40;;;;;;;-14.07;100.00;101763.11;109821;1240;59572;-74
2024/01/11 04:59:26;;;;;;;110.00;51.80;;;;;;;-14.05;100.00;101762.05;109862;1241;71605;-74
2024/01/11 05:01:56;;;;;;;131.60;65.10;;;;;;;-14.06;100.00;101757.31;109641;1240;72558;-74
2024/01/11 05:04:24;;;;;;;99.60;51.80;;;;;;;-14.17;100.00;101757.35;109640;1241;70496;-74
2024/01/11 05:06:53;;;;;;;125.90;64.80;;;;;;;-14.17;100.00;101756.83;109607;1240;71259;-74
2024/01/11 05:09:22;;;;;;;108.70;56.30;;;;;;;-14.08;100.00;101748.19;109787;1241;61159;-74
2024/01/11 05:11:51;;;;;;;103.70;53.60;;;;;;;-14.04;100.00;101738.63;109810;1241;61047;-73
2024/01/11 05:14:19;;;;;;;92.00;46.90;;;;;;;-13.98;100.00;101735.58;109798;1240;73169;-74
2024/01/11 05:16:48;;;;;;;92.90;46.40;;;;;;;-14.01;100.00;101733.25;109664;1240;72978;-73
2024/01/11 05:19:17;;;;;;;92.80;48.20;;;;;;;-13.99;100.00;101731.68;109615;1240;69199;-73
2024/01/11 05:21:46;;;;;;;89.20;45.40;;;;;;;-13.98;100.00;101729.20;109799;1240;71418;-73
2024/01/11 05:24:15;;;;;;;93.90;47.90;;;;;;;-13.93;100.00;101729.74;109786;1242;60450;-74
2024/01/11 05:26:43;;;;;;;92.30;46.40;;;;;;;-13.93;100.00;101725.24;109744;1240;61030;-74
2024/01/11 05:29:12;;;;;;;103.50;46.80;;;;;;;-13.94;100.00;101721.16;109718;1240;73973;-75
2024/01/11 05:31:41;;;;;;;89.00;45.50;;;;;;;-13.89;100.00;101726.39;109698;1241;72402;-73
2024/01/11 05:34:12;;;;;;;92.90;46.10;;;;;;;-13.84;100.00;101725.77;109659;1241;69015;-73
2024/01/11 05:36:41;;;;;;;91.80;44.80;;;;;;;-13.84;100.00;101718.73;109676;1243;73023;-74
2024/01/11 05:39:10;;;;;;;87.00;46.00;;;;;;;-13.80;100.00;101717.74;109599;1241;60780;-77
2024/01/11 05:41:39;;;;;;;90.30;44.70;;;;;;;-13.80;100.00;101719.22;109724;1241;58686;-75
2024/01/11 05:44:08;;;;;;;83.10;45.00;;;;;;;-13.76;100.00;101708.85;109730;1241;71494;-72
2024/01/11 05:46:37;;;;;;;80.90;43.70;;;;;;;-13.70;100.00;101705.45;109802;1240;71801;-72
2024/01/11 05:49:07;;;;;;;86.60;44.90;;;;;;;-13.69;100.00;101698.60;109652;1240;69083;-73
2024/01/11 05:51:36;;;;;;;86.30;44.90;;;;;;;-13.64;100.00;101700.51;109633;1240;72365;-72
2024/01/11 05:54:04;;;;;;;92.80;45.00;;;;;;;-13.58;100.00;101693.85;109781;1241;61677;-73
2024/01/11 05:56:33;;;;;;;83.20;44.40;;;;;;;-13.62;100.00;101687.98;109814;1240;59321;-72
2024/01/11 05:59:02;;;;;;;85.40;43.70;;;;;;;-13.59;100.00;101687.61;109815;1240;71467;-73
2024/01/11 06:01:31;;;;;;;84.60;43.20;;;;;;;-13.50;100.00;101683.63;109762;1241;70910;-72
2024/01/11 06:04:00;;;;;;;93.10;47.70;;;;;;;-13.53;100.00;101681.86;109790;1240;69116;-72
2024/01/11 06:06:29;;;;;;;83.50;41.20;;;;;;;-13.55;100.00;101681.60;109726;1240;71133;-72
2024/01/11 06:08:58;;;;;;;85.20;44.90;;;;;;;-13.51;100.00;101681.91;109562;1244;61185;-71
2024/01/11 06:11:28;;;;;;;92.10;44.10;;;;;;;-13.46;100.00;101676.91;109727;1241;59718;-72
2024/01/11 06:13:57;;;;;;;106.10;49.70;;;;;;;-13.44;100.00;101673.52;109733;1240;74695;-71
2024/01/11 06:16:26;;;;;;;86.40;44.80;;;;;;;-13.42;100.00;101670.75;109734;1241;71385;-72
2024/01/11 06:18:55;;;;;;;84.70;44.70;;;;;;;-13.34;100.00;101668.72;109680;1240;70907;-72
2024/01/11 06:21:24;;;;;;;75.20;41.70;;;;;;;-13.17;100.00;101659.30;109554;1241;74484;-72
2024/01/11 06:23:52;;;;;;;80.90;42.10;;;;;;;-12.96;100.00;101654.23;109579;1241;62179;-72
2024/01/11 06:26:22;;;;;;;78.60;39.60;;;;;;;-12.82;100.00;101653.41;109601;1240;59515;-72
2024/01/11 06:28:51;;;;;;;87.70;43.80;;;;;;;-12.75;100.00;101652.49;109621;1240;71629;-72
2024/01/11 06:31:20;;;;;;;82.70;40.60;;;;;;;-12.68;100.00;101646.73;109646;1240;69588;-71
2024/01/11 06:33:49;;;;;;;92.40;44.80;;;;;;;-12.58;100.00;101641.87;109608;1240;68904;-71
2024/01/11 06:36:19;;;;;;;90.60;44.10;;;;;;;-12.47;100.00;101637.59;109554;1242;72441;-72
2024/01/11 06:38:48;;;;;;;104.60;54.80;;;;;;;-12.43;100.00;101635.22;109564;1241;62061;-72
2024/01/11 06:41:17;;;;;;;86.90;42.60;;;;;;;-12.35;100.00;101627.45;109540;1240;60666;-74
2024/01/11 06:43:46;;;;;;;78.80;40.90;;;;;;;-12.35;100.00;101620.03;109561;1240;73298;-72
2024/01/11 06:46:21;;;;;;;80.70;39.80;;;;;;;-12.27;100.00;101613.94;109589;1240;72429;-72
2024/01/11 06:48:50;;;;;;;80.50;43.20;;;;;;;-12.19;100.00;101608.17;109350;1240;67964;-72
2024/01/11 06:51:23;;;;;;;82.50;44.10;;;;;;;-12.06;100.00;101602.23;109581;1240;72002;-73
2024/01/11 06:53:52;;;;;;;97.60;53.70;;;;;;;-12.03;100.00;101603.70;109575;1243;62792;-71
2024/01/11 06:56:21;;;;;;;89.20;46.90;;;;;;;-11.88;100.00;101600.51;109609;1240;61461;-73
2024/01/11 06:58:49;;;;;;;94.90;47.90;;;;;;;-11.72;100.00;101604.69;109632;1241;74288;-72
2024/01/11 07:01:18;;;;;;;220.30;57.80;;;;;;;-11.55;100.00;101591.27;109512;1240;307776;-73
2024/01/11 07:03:49;;;;;;;109.60;54.00;;;;;;;-11.31;100.00;101590.48;109660;1240;70541;-72
2024/01/11 07:06:18;;;;;;;111.80;47.10;;;;;;;-11.17;100.00;101585.89;109667;1240;71637;-73
2024/01/11 07:08:47;;;;;;;121.90;62.00;;;;;;;-10.97;100.00;101584.98;109738;1242;61083;-72
2024/01/11 07:11:16;;;;;;;104.20;55.50;;;;;;;-10.79;100.00;101577.23;109753;1241;59147;-73
2024/01/11 07:13:45;;;;;;;103.90;54.20;;;;;;;-10.62;100.00;101571.48;109728;1242;71010;-73
2024/01/11 07:16:13;;;;;;;106.50;57.50;;;;;;;-10.43;100.00;101564.44;109725;1240;72255;-72
2024/01/11 07:18:44;;;;;;;107.10;55.00;;;;;;;-10.20;100.00;101564.33;109741;1240;71647;-72
2024/01/11 07:21:13;;;;;;;121.70;65.40;;;;;;;-10.07;100.00;101565.16;109705;1240;74084;-72
2024/01/11 07:23:41;;;;;;;127.90;70.20;;;;;;;-9.97;100.00;101558.66;109693;1243;62792;-73
2024/01/11 07:26:10;;;;;;;127.00;67.00;;;;;;;-9.86;100.00;101559.45;109767;1240;61501;-72
2024/01/11 07:28:39;;;;;;;126.90;69.30;;;;;;;-9.65;100.00;101556.25;109725;1240;72130;-73
2024/01/11 07:31:10;;;;;;;123.60;62.50;;;;;;;-9.46;100.00;101557.86;109745;1242;70522;-72
2024/01/11 07:33:38;;;;;;;117.40;63.20;;;;;;;-9.44;100.00;101543.92;109785;1240;70495;-73
2024/01/11 07:36:09;;;;;;;121.90;62.70;;;;;;;-9.41;100.00;101545.84;109691;1240;73858;-72
2024/01/11 07:38:37;;;;;;;92.50;47.20;;;;;;;-9.10;100.00;101542.80;109683;1241;62272;-72
2024/01/11 07:41:06;;;;;;;69.00;34.70;;;;;;;-9.07;100.00;101537.29;109736;1241;61064;-72
2024/01/11 07:43:35;;;;;;;75.50;41.20;;;;;;;-9.11;100.00;101537.38;109726;1240;74372;-71
2024/01/11 07:46:20;;;;;;;70.50;37.30;;;;;;;-9.19;100.00;101529.10;109716;1240;70654;-74
2024/01/11 07:49:06;;;;;;;73.00;39.10;;;;;;;-9.25;100.00;101528.80;109745;1240;70468;-72
2024/01/11 07:51:35;;;;;;;58.40;31.60;;;;;;;-9.31;100.00;101524.11;109714;1240;72171;-73
2024/01/11 07:54:04;;;;;;;75.40;42.90;;;;;;;-9.38;100.00;101522.45;109679;1241;61121;-72
2024/01/11 07:56:34;;;;;;;63.20;33.50;;;;;;;-9.32;100.00;101519.52;109624;1240;61403;-72
2024/01/11 07:59:04;;;;;;;68.50;37.10;;;;;;;-9.29;100.00;101516.08;109755;1240;74083;-71
2024/01/11 08:01:35;;;;;;;76.00;41.00;;;;;;;-9.26;100.00;101513.25;109742;1241;69785;-72
2024/01/11 08:04:04;;;;;;;77.90;41.40;;;;;;;-9.21;100.00;101508.81;109730;1241;68578;-71
2024/01/11 08:06:33;;;;;;;79.50;44.50;;;;;;;-9.09;100.00;101503.66;109701;1241;71091;-71
2024/01/11 08:09:04;;;;;;;72.00;40.70;;;;;;;-9.04;100.00;101501.23;109735;1241;61310;-72
2024/01/11 08:11:33;;;;;;;58.60;33.20;;;;;;;-8.89;100.00;101495.11;109640;1241;58739;-72
2024/01/11 08:14:05;;;;;;;54.50;28.90;;;;;;;-8.83;100.00;101492.20;109611;1242;71568;-72
2024/01/11 08:16:35;;;;;;;61.90;31.90;;;;;;;-8.86;100.00;101496.70;109593;1240;72177;-71
2024/01/11 08:19:04;;;;;;;60.30;32.50;;;;;;;-8.82;100.00;101491.70;109579;1240;71059;-73
2024/01/11 08:21:32;;;;;;;65.90;35.90;;;;;;;-8.78;100.00;101484.02;109551;1240;73176;-72
2024/01/11 08:24:02;;;;;;;74.50;40.70;;;;;;;-8.57;100.00;101481.18;109549;1241;60614;-72
2024/01/11 08:26:31;;;;;;;75.30;41.20;;;;;;;-8.44;100.00;101475.34;109707;1240;60540;-73
2024/01/11 08:29:00;;;;;;;43.70;23.00;;;;;;;-8.22;100.00;101476.52;109754;1240;72526;-72
2024/01/11 08:31:29;;;;;;;75.50;42.40;;;;;;;-8.16;100.00;101467.85;109728;1241;70268;-72
2024/01/11 08:33:58;;;;;;;83.90;44.70;;;;;;;-8.05;100.00;101460.41;109732;1240;67974;-72
2024/01/11 08:36:34;;;;;;;98.30;49.30;;;;;;;-7.90;100.00;101455.40;109703;1241;71115;-72
2024/01/11 08:39:05;;;;;;;92.20;48.10;;;;;;;-7.60;100.00;101459.38;109715;1242;62071;-74
2024/01/11 08:41:40;;;;;;;73.80;36.50;;;;;;;-7.32;100.00;101456.88;109775;1240;59488;-71
2024/01/11 08:44:09;;;;;;;77.30;44.20;;;;;;;-7.11;100.00;101450.53;109753;1243;71586;-72
2024/01/11 08:46:38;;;;;;;78.30;42.60;;;;;;;-7.00;100.00;101450.16;109715;1241;69398;-72
2024/01/11 08:49:07;;;;;;;46.70;24.80;;;;;;;-6.79;100.00;101449.19;109706;1240;69552;-72
2024/01/11 08:51:36;;;;;;;57.70;30.40;;;;;;;-6.71;100.00;101434.20;109664;1240;73708;-72
2024/01/11 08:54:08;;;;;;;56.90;29.40;;;;;;;-6.69;100.00;101434.39;109582;1241;62563;-72
2024/01/11 08:56:39;;;;;;;34.80;21.10;;;;;;;-6.62;100.00;101427.69;109554;1241;60034;-72
2024/01/11 08:59:11;;;;;;;57.30;28.00;;;;;;;-6.55;100.00;101431.48;109585;1241;73745;-72
2024/01/11 09:01:40;;;;;;;71.20;39.80;;;;;;;-6.51;100.00;101424.90;109543;1241;70525;-72
2024/01/11 09:04:17;;;;;;;54.10;29.20;;;;;;;-6.30;100.00;101416.25;109559;1242;68657;-72
2024/01/11 09:06:46;;;;;;;64.40;35.70;;;;;;;-6.05;100.00;101408.99;109515;1240;72047;-72
2024/01/11 09:09:15;;;;;;;56.70;29.80;;;;;;;-5.86;100.00;101409.25;109515;1241;61668;-72
2024/01/11 09:11:44;;;;;;;70.70;38.00;;;;;;;-5.72;100.00;101403.56;109664;1240;62241;-72
2024/01/11 09:14:13;;;;;;;67.90;37.50;;;;;;;-5.54;100.00;101394.48;109551;1240;73283;-74
2024/01/11 09:16:44;;;;;;;63.20;37.10;;;;;;;-5.22;100.00;101390.70;109468;1244;70706;-73
2024/01/11 09:19:13;;;;;;;54.40;32.70;;;;;;;-5.11;100.00;101390.23;109562;1242;67958;-73
2024/01/11 09:21:42;;;;;;;48.50;27.90;;;;;;;-4.78;100.00;101384.35;109566;1241;72016;-72
2024/01/11 09:24:11;;;;;;;31.90;19.70;;;;;;;-4.53;100.00;101368.90;109554;1242;63053;-73
2024/01/11 09:26:39;;;;;;;24.60;13.70;;;;;;;-4.54;100.00;101357.34;109573;1241;61453;-72
2024/01/11 09:29:08;;;;;;;41.90;24.80;;;;;;;-4.61;100.00;101361.09;109643;1240;73457;-73
2024/01/11 09:31:37;;;;;;;44.60;25.70;;;;;;;-4.60;100.00;101354.28;109544;1242;70996;-73
2024/01/11 09:34:07;;;;;;;50.00;30.00;;;;;;;-4.51;100.00;101348.67;109509;1241;68058;-73
2024/01/11 09:36:38;;;;;;;66.00;36.00;;;;;;;-4.46;100.00;101344.93;109533;1242;71781;-73
2024/01/11 09:39:08;;;;;;;43.20;24.20;;;;;;;-4.10;100.00;101338.41;109528;1244;60296;-72
2024/01/11 09:41:38;;;;;;;51.50;28.30;;;;;;;-3.73;100.00;101338.66;109524;1240;61026;-72
2024/01/11 09:44:07;;;;;;;32.70;18.00;;;;;;;-3.42;100.00;101330.86;109538;1242;72997;-73
2024/01/11 09:46:36;;;;;;;33.70;15.10;;;;;;;-3.20;100.00;101321.89;109594;1240;73031;-73
2024/01/11 09:49:05;;;;;;;30.20;17.40;;;;;;;-3.08;100.00;101316.19;109704;1241;71046;-73
2024/01/11 09:51:38;;;;;;;28.50;15.70;;;;;;;-2.80;100.00;101303.20;109557;1243;72821;-73
2024/01/11 09:54:09;;;;;;;30.80;17.60;;;;;;;-2.70;100.00;101298.02;109576;1241;62301;-72
2024/01/11 09:56:38;;;;;;;28.30;15.90;;;;;;;-2.76;100.00;101296.52;109705;1240;61245;-72
2024/01/11 09:59:09;;;;;;;27.30;15.00;;;;;;;-2.75;100.00;101291.40;109649;1242;73967;-72
2024/01/11 10:01:39;;;;;;;26.30;14.00;;;;;;;-2.64;100.00;101281.92;109461;1239;72680;-72
2024/01/11 10:04:08;;;;;;;37.80;19.70;;;;;;;-2.54;100.00;101278.25;109653;1242;68788;-72
2024/01/11 10:06:38;;;;;;;29.00;17.60;;;;;;;-2.53;100.00;101271.25;109539;1241;73842;-73
2024/01/11 10:09:08;;;;;;;25.60;17.20;;;;;;;-2.61;100.00;101264.86;109564;1243;60965;-73
2024/01/11 10:11:37;;;;;;;28.30;18.10;;;;;;;-2.67;100.00;101267.63;109590;1240;62084;-73
2024/01/11 10:14:07;;;;;;;23.90;15.50;;;;;;;-2.55;100.00;101255.91;109535;1241;73762;-73
2024/01/11 10:16:36;;;;;;;47.70;29.60;;;;;;;-2.56;100.00;101257.63;109659;1242;69676;-73
2024/01/11 10:19:05;;;;;;;21.40;14.10;;;;;;;-2.49;100.00;101255.02;109656;1241;70273;-72
2024/01/11 10:21:39;;;;;;;24.10;15.40;;;;;;;-2.26;100.00;101244.38;109640;1241;72853;-73
2024/01/11 10:24:08;;;;;;;22.30;14.40;;;;;;;-2.27;100.00;101238.59;109526;1242;61695;-72
2024/01/11 10:26:36;;;;;;;22.70;14.80;;;;;;;-2.29;100.00;101226.98;109543;1243;60710;-73
2024/01/11 10:29:10;;;;;;;29.60;19.00;;;;;;;-2.20;100.00;101218.35;109684;1242;73940;-73
2024/01/11 10:31:41;;;;;;;46.10;29.10;;;;;;;-2.28;100.00;101219.81;109656;1242;70960;-73
2024/01/11 10:34:10;;;;;;;55.70;31.40;;;;;;;-1.98;100.00;101213.66;109653;1240;70831;-73
2024/01/11 10:36:40;;;;;;;39.90;21.50;;;;;;;-1.58;100.00;101208.14;109670;1240;73172;-73
2024/01/11 10:39:10;;;;;;;26.80;14.70;;;;;;;-1.18;100.00;101206.36;109543;1243;60587;-73
2024/01/11 10:41:43;;;;;;;41.00;23.90;;;;;;;-1.07;100.00;101200.02;109604;1240;60165;-73
2024/01/11 10:44:22;;;;;;;31.10;17.30;;;;;;;-0.90;100.00;101191.70;109617;1240;73961;-73
2024/01/11 10:46:56;;;;;;;43.90;21.70;;;;;;;-0.63;100.00;101189.86;109558;1240;72299;-73
2024/01/11 10:49:26;;;;;;;44.80;25.90;;;;;;;-0.50;100.00;101185.15;109698;1241;68962;-72
2024/01/11 10:52:01;;;;;;;39.20;24.50;;;;;;;-0.32;100.00;101179.49;109536;1241;73826;-72
2024/01/11 10:54:34;;;;;;;37.80;22.20;;;;;;;-0.04;100.00;101173.80;109712;1241;61103;-73
2024/01/11 10:57:05;;;;;;;27.90;18.70;;;;;;;0.18;100.00;101169.21;109596;1241;59425;-73